Old Town, Florida
Current Conditions -  °F | °C
As of 10:53 AM on Wednesday 22 Oct 2014 (Local Time) from KGNV Reporting Station
Clear Clear  
Wind Chill: 71°   Ceiling: Unl
Heat Index: 71°   Visibility: 10mi
Dew Point: 53°   Wind: 9mph
Humidity: 53%   Direction: 50°NE
Pressure: 30.04"   Gusts: NA
Location:  29.6°N, 82.98°W
Report Text: KGNV 221453Z 05008KT 10SM CLR 22/12 A3004 RMK AO2 SLP170 T02170117 51014
Loading
Personal Weather Stations






























Interactive Weather Map
Tropical Storm Tracking
New forecast layout! Learn more

10-Day Weather Forecast

Advertisements
Track Severe Weather on mobile